Time;durP1;ratioP1;P1;durP2;ratioP2;P2;SDS_P1;SDS_P2;PMS_P1;PMS_P2;Temp;Humidity;BMP_temperature;BMP_pressure;BME280_temperature;BME280_humidity;BME280_pressure;Samples;Min_cycle;Max_cycle;Signal;HPM_P1;HPM_P2
2022/05/21 00:02:15;;;;;;;2.67;0.82;;;16.60;99.90;;;;;;5074422;28;20219;-71
2022/05/21 00:05:04;;;;;;;1.70;1.00;;;16.70;99.90;;;;;;5074543;28;20212;-71
2022/05/21 00:07:52;;;;;;;0.80;0.75;;;16.70;99.90;;;;;;5075474;28;20207;-70
2022/05/21 00:10:41;;;;;;;0.73;0.73;;;16.60;99.90;;;;;;5074367;28;20638;-70
2022/05/21 00:13:30;;;;;;;0.40;0.40;;;16.50;99.90;;;;;;5074505;28;20201;-69
2022/05/21 00:16:19;;;;;;;0.57;0.57;;;16.50;99.90;;;;;;5074574;28;20200;-73
2022/05/21 00:19:07;;;;;;;0.60;0.60;;;16.40;99.90;;;;;;5074997;28;20213;-69
2022/05/21 00:21:55;;;;;;;0.80;0.80;;;16.40;99.90;;;;;;5074855;28;20228;-71
2022/05/21 00:24:43;;;;;;;0.75;0.75;;;16.30;99.90;;;;;;5075331;28;20196;-70
2022/05/21 00:27:31;;;;;;;0.80;0.80;;;16.40;99.90;;;;;;5094110;28;20615;-69
2022/05/21 00:30:21;;;;;;;2.45;0.90;;;16.40;99.90;;;;;;5093612;28;20676;-70
2022/05/21 00:33:09;;;;;;;0.60;0.60;;;16.40;99.90;;;;;;5095173;28;20199;-70
2022/05/21 00:35:58;;;;;;;0.50;0.50;;;16.30;99.90;;;;;;5099355;28;20204;-69
2022/05/21 00:38:46;;;;;;;0.68;0.60;;;16.30;99.90;;;;;;5094321;28;20207;-70
2022/05/21 00:41:34;;;;;;;1.50;1.13;;;16.30;99.90;;;;;;5094191;28;20216;-69
2022/05/21 00:44:22;;;;;;;0.73;0.73;;;16.30;99.90;;;;;;5093495;28;20227;-72
2022/05/21 00:47:12;;;;;;;0.55;0.55;;;16.30;99.90;;;;;;5093728;28;20203;-73
2022/05/21 00:50:00;;;;;;;0.77;0.77;;;16.30;99.90;;;;;;5095172;28;20253;-70
2022/05/21 00:52:49;;;;;;;1.13;1.00;;;16.40;99.90;;;;;;5094149;28;20207;-69
2022/05/21 00:55:37;;;;;;;0.77;0.77;;;16.40;99.90;;;;;;5094679;28;20206;-69
2022/05/21 01:01:40;;;;;;;0.90;0.75;;;16.40;99.90;;;;;;5093883;28;20598;-69
2022/05/21 01:04:32;;;;;;;0.90;0.90;;;16.30;99.90;;;;;;5095345;28;20309;-71
2022/05/21 01:07:20;;;;;;;0.70;0.60;;;16.20;99.90;;;;;;5095048;28;20196;-72
2022/05/21 01:10:10;;;;;;;1.25;1.15;;;16.00;99.90;;;;;;5093054;28;20196;-70
2022/05/21 01:12:59;;;;;;;1.30;1.20;;;15.80;99.90;;;;;;5093436;28;20209;-70
2022/05/21 01:15:51;;;;;;;1.20;1.03;;;15.70;99.90;;;;;;5092793;28;20200;-69
2022/05/21 01:18:39;;;;;;;0.90;0.80;;;15.70;99.90;;;;;;5092951;28;20196;-69
2022/05/21 01:21:28;;;;;;;0.70;0.70;;;15.70;99.90;;;;;;5093530;28;20220;-70
2022/05/21 01:24:18;;;;;;;1.50;0.98;;;15.80;99.90;;;;;;5093036;28;20216;-69
2022/05/21 01:27:07;;;;;;;0.57;0.57;;;15.70;99.90;;;;;;5053413;28;20193;-70
2022/05/21 01:29:56;;;;;;;2.53;2.08;;;15.70;99.90;;;;;;5054476;28;20666;-69
2022/05/21 01:32:46;;;;;;;0.60;0.60;;;15.60;99.90;;;;;;5054412;28;20206;-69
2022/05/21 01:35:34;;;;;;;1.67;0.70;;;15.60;99.90;;;;;;5054748;28;20208;-71
2022/05/21 01:38:23;;;;;;;1.50;1.40;;;15.50;99.90;;;;;;5053479;28;20205;-69
2022/05/21 01:41:13;;;;;;;0.80;0.80;;;15.40;99.90;;;;;;5053369;28;20217;-71
2022/05/21 01:47:09;;;;;;;0.88;0.65;;;15.40;99.90;;;;;;5072225;28;20201;-70
2022/05/21 01:49:57;;;;;;;1.20;1.20;;;15.40;99.90;;;;;;5065287;28;20237;-69
2022/05/21 01:52:45;;;;;;;1.20;1.13;;;15.30;99.90;;;;;;5072530;28;20219;-69
2022/05/21 01:55:33;;;;;;;0.90;0.70;;;15.30;99.90;;;;;;5072426;28;20423;-69
2022/05/21 01:58:23;;;;;;;1.60;1.50;;;15.30;99.90;;;;;;5071755;28;20252;-69
2022/05/21 02:01:12;;;;;;;0.70;0.70;;;15.20;99.90;;;;;;5072384;28;20216;-70
2022/05/21 02:04:00;;;;;;;1.60;1.50;;;15.10;99.90;;;;;;5071831;28;20220;-69
2022/05/21 02:06:48;;;;;;;0.77;0.77;;;15.10;99.90;;;;;;5072570;28;20200;-69
2022/05/21 02:09:37;;;;;;;2.53;1.30;;;15.00;99.90;;;;;;5071670;28;20423;-69
2022/05/21 02:12:25;;;;;;;1.17;1.17;;;15.00;99.90;;;;;;5072064;28;20826;-69
2022/05/21 02:15:14;;;;;;;0.53;0.53;;;15.00;99.90;;;;;;5071454;28;20677;-71
2022/05/21 02:18:02;;;;;;;0.80;0.80;;;14.90;99.90;;;;;;5071389;28;20426;-70
2022/05/21 02:20:52;;;;;;;0.60;0.60;;;14.90;99.90;;;;;;5071402;28;20504;-70
2022/05/21 02:23:40;;;;;;;0.80;0.80;;;14.80;99.90;;;;;;5071614;28;20224;-71
2022/05/21 02:26:29;;;;;;;1.33;1.03;;;14.70;99.90;;;;;;5072796;28;20575;-70
2022/05/21 02:29:18;;;;;;;0.70;0.70;;;14.70;99.90;;;;;;5072043;28;20424;-71
2022/05/21 02:32:11;;;;;;;3.90;1.43;;;14.80;99.90;;;;;;5075883;28;20467;-68
2022/05/21 02:34:59;;;;;;;2.40;1.23;;;14.80;99.90;;;;;;5072682;28;20503;-69
2022/05/21 02:40:52;;;;;;;1.17;1.07;;;14.80;99.90;;;;;;5072039;28;20447;-71
2022/05/21 02:43:43;;;;;;;4.37;2.60;;;14.80;99.90;;;;;;5071550;28;20265;-71
2022/05/21 02:46:31;;;;;;;1.60;0.80;;;14.70;99.90;;;;;;5071432;28;20430;-70
2022/05/21 02:49:21;;;;;;;1.13;1.03;;;14.60;99.90;;;;;;5071917;28;20454;-69
2022/05/21 02:52:09;;;;;;;0.70;0.70;;;14.50;99.90;;;;;;5071383;28;20494;-70
2022/05/21 02:54:57;;;;;;;1.47;1.37;;;14.40;99.90;;;;;;5071482;28;20419;-70
2022/05/21 02:57:46;;;;;;;0.80;0.50;;;14.40;99.90;;;;;;5072209;28;20442;-69
2022/05/21 03:00:34;;;;;;;0.40;0.40;;;14.40;99.90;;;;;;5071557;28;20448;-71
2022/05/21 03:03:22;;;;;;;0.50;0.50;;;14.30;99.90;;;;;;5071601;28;20796;-72
2022/05/21 03:06:12;;;;;;;0.80;0.80;;;14.30;99.90;;;;;;5071483;28;20415;-70
2022/05/21 03:12:06;;;;;;;0.70;0.70;;;14.30;99.90;;;;;;5071174;28;20814;-70
2022/05/21 03:14:54;;;;;;;1.10;1.00;;;14.30;99.90;;;;;;5071971;28;20419;-69
2022/05/21 03:17:43;;;;;;;2.10;0.90;;;14.40;99.90;;;;;;5071117;28;20449;-69
2022/05/21 03:20:31;;;;;;;0.83;0.83;;;14.40;99.90;;;;;;5071219;28;20986;-68
2022/05/21 03:23:20;;;;;;;0.60;0.50;;;14.40;99.90;;;;;;5071202;28;20427;-70
2022/05/21 03:26:09;;;;;;;0.60;0.60;;;14.40;99.90;;;;;;5084047;28;20591;-69
2022/05/21 03:28:57;;;;;;;0.80;0.80;;;14.40;99.90;;;;;;5090997;28;20495;-70
2022/05/21 03:31:45;;;;;;;1.03;1.03;;;14.40;99.90;;;;;;5091214;28;20472;-69
2022/05/21 03:34:34;;;;;;;0.60;0.60;;;14.40;99.90;;;;;;5090946;28;20429;-69
2022/05/21 03:37:22;;;;;;;0.60;0.60;;;14.30;99.90;;;;;;5090706;28;20472;-69
2022/05/21 03:40:15;;;;;;;0.70;0.60;;;14.30;99.90;;;;;;5090373;28;20418;-70
2022/05/21 03:43:04;;;;;;;2.67;1.17;;;14.30;99.90;;;;;;5090384;28;20797;-69
2022/05/21 03:45:52;;;;;;;0.60;0.60;;;14.10;99.90;;;;;;5091479;28;21013;-69
2022/05/21 03:48:41;;;;;;;0.57;0.57;;;14.20;99.90;;;;;;5090879;28;20425;-69
2022/05/21 03:51:29;;;;;;;0.50;0.50;;;14.20;99.90;;;;;;5090075;28;20496;-70
2022/05/21 03:54:17;;;;;;;0.53;0.53;;;14.20;99.90;;;;;;5076938;28;20455;-71
2022/05/21 03:57:07;;;;;;;0.50;0.50;;;14.20;99.90;;;;;;5070656;28;20428;-69
2022/05/21 03:59:57;;;;;;;2.30;1.20;;;14.20;99.90;;;;;;5070881;28;20669;-69
2022/05/21 04:02:45;;;;;;;1.30;1.20;;;14.30;99.90;;;;;;5070724;28;20261;-68
2022/05/21 04:05:33;;;;;;;2.70;1.30;;;14.30;99.90;;;;;;5070639;28;20216;-69
2022/05/21 04:08:22;;;;;;;3.40;1.40;;;14.20;99.90;;;;;;5071388;28;20423;-69
2022/05/21 04:11:10;;;;;;;0.50;0.50;;;14.00;99.90;;;;;;5070818;28;20538;-68
2022/05/21 04:13:59;;;;;;;1.00;0.90;;;13.80;99.90;;;;;;5070402;28;20993;-70
2022/05/21 04:16:47;;;;;;;0.83;0.83;;;13.70;99.90;;;;;;5071227;28;20449;-69
2022/05/21 04:19:36;;;;;;;2.97;1.13;;;13.70;99.90;;;;;;5070358;28;20962;-69
2022/05/21 04:22:24;;;;;;;1.43;0.90;;;13.70;99.90;;;;;;5070156;28;20446;-69
2022/05/21 04:25:12;;;;;;;0.50;0.50;;;13.70;99.90;;;;;;5075390;28;20523;-69
2022/05/21 04:28:00;;;;;;;1.10;1.10;;;13.80;99.90;;;;;;5091017;28;20804;-70
2022/05/21 04:30:50;;;;;;;1.67;0.80;;;13.80;99.90;;;;;;5092216;28;20454;-69
2022/05/21 04:33:38;;;;;;;1.00;0.90;;;13.80;99.90;;;;;;5092781;28;20501;-70
2022/05/21 04:36:26;;;;;;;3.17;1.50;;;13.80;99.90;;;;;;5094137;28;20421;-70
2022/05/21 04:39:14;;;;;;;0.70;0.70;;;13.90;99.90;;;;;;5093925;28;20802;-69
2022/05/21 04:42:02;;;;;;;0.60;0.60;;;14.00;99.90;;;;;;5094593;28;20448;-70
2022/05/21 04:44:50;;;;;;;1.83;1.47;;;14.00;99.90;;;;;;5093688;28;21022;-69
2022/05/21 04:47:40;;;;;;;1.33;0.73;;;14.10;99.90;;;;;;5093550;28;20475;-70
2022/05/21 04:50:28;;;;;;;1.23;0.90;;;14.10;99.90;;;;;;5095004;28;20452;-69
2022/05/21 04:53:16;;;;;;;0.83;0.77;;;13.90;99.90;;;;;;5093859;28;20426;-69
2022/05/21 04:56:05;;;;;;;0.60;0.60;;;13.80;99.90;;;;;;5093323;28;20426;-68
2022/05/21 04:59:14;;;;;;;0.50;0.50;;;13.60;99.90;;;;;;5093362;28;20422;-69
2022/05/21 05:02:02;;;;;;;0.60;0.60;;;13.40;99.90;;;;;;5092859;28;20446;-68
2022/05/21 05:04:51;;;;;;;0.80;0.80;;;13.30;99.90;;;;;;5093379;28;20466;-70
2022/05/21 05:07:40;;;;;;;0.80;0.70;;;13.20;99.90;;;;;;5093764;28;20430;-68
2022/05/21 05:10:28;;;;;;;0.70;0.70;;;13.20;99.90;;;;;;5093918;28;20468;-69
2022/05/21 05:13:18;;;;;;;0.50;0.50;;;13.20;99.90;;;;;;5093573;28;20790;-68
2022/05/21 05:16:06;;;;;;;0.70;0.70;;;13.30;99.90;;;;;;5092977;28;20475;-69
2022/05/21 05:18:54;;;;;;;1.47;1.47;;;13.20;99.90;;;;;;5092575;28;20430;-69
2022/05/21 05:21:44;;;;;;;0.50;0.50;;;13.20;99.90;;;;;;5092865;28;20799;-69
2022/05/21 05:24:32;;;;;;;0.90;0.90;;;13.30;99.90;;;;;;5092498;28;20422;-68
2022/05/21 05:27:21;;;;;;;6.43;1.03;;;13.30;99.90;;;;;;5052974;28;20419;-68
2022/05/21 05:30:10;;;;;;;0.90;0.80;;;13.40;99.90;;;;;;5054394;28;20425;-69
2022/05/21 05:32:58;;;;;;;0.47;0.47;;;13.40;99.90;;;;;;5053842;28;20431;-68
2022/05/21 05:35:48;;;;;;;1.43;0.67;;;13.40;99.90;;;;;;5054185;28;20460;-69
2022/05/21 05:38:38;;;;;;;0.50;0.50;;;13.50;99.90;;;;;;5054382;28;20427;-68
2022/05/21 05:41:26;;;;;;;0.60;0.60;;;13.50;99.90;;;;;;5053648;28;20972;-68
2022/05/21 05:44:14;;;;;;;1.50;1.20;;;13.70;99.90;;;;;;5053721;28;20429;-70
2022/05/21 05:47:02;;;;;;;0.67;0.67;;;13.70;99.90;;;;;;5054411;28;20459;-70
2022/05/21 05:49:50;;;;;;;0.60;0.60;;;13.70;99.90;;;;;;5054912;28;20826;-71
2022/05/21 05:52:38;;;;;;;0.60;0.60;;;13.90;99.90;;;;;;5053845;28;20425;-68
2022/05/21 05:55:28;;;;;;;1.10;1.10;;;14.20;99.90;;;;;;5053750;28;20451;-69
2022/05/21 06:01:31;;;;;;;1.53;1.03;;;14.70;99.90;;;;;;5034658;28;20460;-70
2022/05/21 06:04:19;;;;;;;3.07;0.87;;;14.70;99.90;;;;;;5053356;28;20423;-69
2022/05/21 06:07:12;;;;;;;1.20;1.10;;;14.50;99.90;;;;;;5053567;28;20413;-69
2022/05/21 06:10:02;;;;;;;5.07;1.80;;;14.40;99.90;;;;;;5053526;28;20424;-70
2022/05/21 06:12:57;;;;;;;0.87;0.80;;;14.20;99.90;;;;;;5053665;28;20450;-70
2022/05/21 06:15:45;;;;;;;0.80;0.73;;;14.20;99.90;;;;;;5053343;28;20471;-70
2022/05/21 06:18:34;;;;;;;0.53;0.53;;;14.30;99.90;;;;;;5053850;28;20432;-71
2022/05/21 06:21:22;;;;;;;1.03;0.70;;;14.30;99.90;;;;;;5053428;28;20448;-68
2022/05/21 06:24:10;;;;;;;1.00;1.00;;;14.20;99.90;;;;;;5054149;28;20670;-69
2022/05/21 06:26:58;;;;;;;2.10;0.80;;;14.10;99.90;;;;;;5095896;28;20536;-69
2022/05/21 06:29:48;;;;;;;1.63;0.90;;;14.20;99.90;;;;;;5093961;28;20450;-69
2022/05/21 06:32:36;;;;;;;0.50;0.50;;;14.20;99.90;;;;;;5092014;28;20425;-69
2022/05/21 06:35:26;;;;;;;0.60;0.60;;;14.20;99.90;;;;;;5091109;28;20981;-68
2022/05/21 06:38:15;;;;;;;0.87;0.87;;;14.10;99.90;;;;;;5092134;28;20429;-69
2022/05/21 06:41:03;;;;;;;0.50;0.50;;;14.20;99.90;;;;;;5091915;28;20820;-69
2022/05/21 06:43:51;;;;;;;0.47;0.47;;;14.30;99.90;;;;;;5091208;28;20970;-68
2022/05/21 06:46:41;;;;;;;1.03;0.67;;;14.60;99.90;;;;;;5091419;28;20468;-69
2022/05/21 06:49:29;;;;;;;0.80;0.77;;;14.50;99.90;;;;;;5091961;28;20203;-69
2022/05/21 06:52:17;;;;;;;0.87;0.80;;;14.70;99.90;;;;;;5091344;28;20223;-70
2022/05/21 06:55:06;;;;;;;0.40;0.40;;;15.00;99.90;;;;;;5091444;28;20449;-69
2022/05/21 06:57:54;;;;;;;0.50;0.50;;;15.30;99.90;;;;;;5092244;28;20433;-69
2022/05/21 07:00:43;;;;;;;0.60;0.60;;;15.40;99.90;;;;;;5091411;28;20219;-69
2022/05/21 07:03:33;;;;;;;0.97;0.80;;;15.10;99.90;;;;;;5091093;28;20227;-69
2022/05/21 07:09:27;;;;;;;0.57;0.57;;;14.50;99.90;;;;;;5091590;28;20426;-69
2022/05/21 07:12:15;;;;;;;1.47;1.47;;;14.40;99.90;;;;;;5090728;28;20695;-70
2022/05/21 07:15:05;;;;;;;1.10;1.00;;;14.40;99.90;;;;;;5090722;28;20241;-69
2022/05/21 07:18:00;;;;;;;0.40;0.40;;;14.40;99.90;;;;;;5091784;28;20196;-69
2022/05/21 07:20:50;;;;;;;0.50;0.50;;;14.40;99.90;;;;;;5091108;28;20442;-70
2022/05/21 07:23:38;;;;;;;1.27;0.70;;;14.50;99.90;;;;;;5090517;28;20999;-69
2022/05/21 07:26:28;;;;;;;0.60;0.60;;;14.50;99.90;;;;;;5076053;28;20415;-70
2022/05/21 07:29:16;;;;;;;0.50;0.50;;;14.60;99.90;;;;;;5071759;28;20419;-69
2022/05/21 07:32:04;;;;;;;0.80;0.80;;;14.60;99.90;;;;;;5070651;28;21029;-69
2022/05/21 07:34:58;;;;;;;0.50;0.50;;;14.90;99.90;;;;;;5071206;28;20531;-69
2022/05/21 07:37:48;;;;;;;1.27;0.90;;;15.00;99.90;;;;;;5070990;28;21029;-69
2022/05/21 07:40:37;;;;;;;1.53;1.10;;;15.20;99.90;;;;;;5070685;28;20450;-69
2022/05/21 07:43:27;;;;;;;0.40;0.40;;;15.40;99.90;;;;;;5071416;28;20525;-70
2022/05/21 07:46:16;;;;;;;0.60;0.60;;;15.40;99.90;;;;;;5070985;28;21024;-69
2022/05/21 07:49:04;;;;;;;1.33;0.93;;;15.60;99.90;;;;;;5071041;28;20387;-69
2022/05/21 07:51:52;;;;;;;0.70;0.70;;;15.70;99.90;;;;;;5071430;28;20224;-69
2022/05/21 07:54:41;;;;;;;0.50;0.50;;;15.90;99.90;;;;;;5070902;28;20419;-69
2022/05/21 07:57:30;;;;;;;0.40;0.40;;;16.10;99.90;;;;;;5071238;28;20220;-70
2022/05/21 08:00:19;;;;;;;2.03;0.90;;;16.50;99.90;;;;;;5071373;28;20197;-69
2022/05/21 08:03:08;;;;;;;0.40;0.40;;;17.00;99.90;;;;;;5071655;28;20197;-69
2022/05/21 08:05:56;;;;;;;0.40;0.40;;;17.20;99.90;;;;;;5071744;28;20577;-68
2022/05/21 08:08:45;;;;;;;0.40;0.40;;;17.50;99.90;;;;;;5075436;28;20204;-69
2022/05/21 08:11:34;;;;;;;0.70;0.70;;;17.70;99.90;;;;;;5075289;28;20716;-70
2022/05/21 08:14:23;;;;;;;0.70;0.70;;;18.00;99.90;;;;;;5075414;28;20233;-69
2022/05/21 08:17:12;;;;;;;8.20;1.15;;;18.10;99.90;;;;;;5075330;28;20223;-68
2022/05/21 08:20:00;;;;;;;1.25;1.05;;;17.90;99.90;;;;;;5075201;28;20197;-69
2022/05/21 08:29:01;;;;;;;0.50;0.50;;;18.00;99.90;;;;;;5095019;28;20591;-69
2022/05/21 08:31:49;;;;;;;0.50;0.50;;;18.20;99.90;;;;;;5093976;28;20231;-69
2022/05/21 08:34:37;;;;;;;1.08;0.90;;;18.00;99.90;;;;;;5094429;28;20613;-69
2022/05/21 08:37:27;;;;;;;0.50;0.50;;;17.60;99.90;;;;;;5094786;28;20223;-69
2022/05/21 08:40:16;;;;;;;1.20;1.10;;;17.40;99.90;;;;;;5094238;28;20611;-69
2022/05/21 08:43:07;;;;;;;0.73;0.73;;;17.10;99.90;;;;;;5094516;28;20204;-69
2022/05/21 08:46:08;;;;;;;1.35;0.95;;;16.90;99.90;;;;;;5095271;28;20199;-68
2022/05/21 08:49:01;;;;;;;0.80;0.80;;;16.50;99.90;;;;;;5094043;28;20207;-69
2022/05/21 08:51:55;;;;;;;1.58;1.48;;;16.00;99.90;;;;;;5094554;28;20452;-68
2022/05/21 08:54:47;;;;;;;4.00;0.70;;;15.50;99.90;;;;;;5093735;28;20574;-70
2022/05/21 08:57:43;;;;;;;1.73;0.73;;;15.30;99.90;;;;;;5093456;28;20220;-69
2022/05/21 09:00:36;;;;;;;0.70;0.70;;;15.20;99.90;;;;;;5093317;28;20223;-69
2022/05/21 09:03:27;;;;;;;0.50;0.50;;;15.10;99.90;;;;;;5093717;28;20192;-70
2022/05/21 09:06:29;;;;;;;0.60;0.60;;;15.10;99.90;;;;;;5094001;28;20199;-69
2022/05/21 09:09:41;;;;;;;1.80;1.37;;;15.00;99.90;;;;;;5093517;28;20479;-68
2022/05/21 09:12:39;;;;;;;1.67;0.97;;;14.90;99.90;;;;;;5094066;28;20245;-69
2022/05/21 09:18:36;;;;;;;3.43;0.90;;;14.40;99.90;;;;;;5093271;28;20462;-70
2022/05/21 09:21:27;;;;;;;0.67;0.67;;;14.30;99.90;;;;;;5092760;28;20449;-69
2022/05/21 09:24:33;;;;;;;1.87;1.00;;;14.30;99.90;;;;;;5092762;28;20429;-69
2022/05/21 09:27:27;;;;;;;0.57;0.50;;;14.60;99.90;;;;;;5053597;28;20917;-69
2022/05/21 09:30:21;;;;;;;1.70;1.27;;;15.10;99.90;;;;;;5054281;28;20245;-70
2022/05/21 09:33:25;;;;;;;0.73;0.60;;;15.80;99.90;;;;;;5055113;28;20424;-69
2022/05/21 09:36:18;;;;;;;5.93;3.13;;;16.40;99.90;;;;;;5054943;28;20208;-70
2022/05/21 09:39:06;;;;;;;0.93;0.93;;;16.70;99.90;;;;;;5054881;28;20664;-70
2022/05/21 09:42:08;;;;;;;8.65;1.95;;;16.70;99.90;;;;;;5054437;28;20690;-68
2022/05/21 09:48:19;;;;;;;2.70;2.50;;;16.80;99.90;;;;;;5055176;28;20196;-70
2022/05/21 09:51:24;;;;;;;1.33;1.00;;;16.50;99.90;;;;;;5054664;28;20217;-69
2022/05/21 09:54:21;;;;;;;1.93;1.77;;;16.30;99.90;;;;;;5053961;28;20197;-69
2022/05/21 09:57:23;;;;;;;1.25;1.15;;;16.30;99.90;;;;;;5054641;28;20213;-69
2022/05/21 10:00:21;;;;;;;0.95;0.68;;;16.50;99.90;;;;;;5054275;28;20216;-69
2022/05/21 10:03:11;;;;;;;1.13;1.13;;;16.50;99.90;;;;;;5054056;28;20243;-70
2022/05/21 10:06:01;;;;;;;1.95;1.85;;;16.90;99.90;;;;;;5054014;28;20666;-68
2022/05/21 10:12:08;;;;;;;3.63;2.53;;;17.50;99.90;;;;;;5054636;28;20639;-69
2022/05/21 10:15:03;;;;;;;2.28;0.93;;;17.40;99.90;;;;;;5054944;28;20642;-68
2022/05/21 10:18:00;;;;;;;0.93;0.90;;;17.70;99.90;;;;;;5054421;28;20228;-69
2022/05/21 10:20:54;;;;;;;3.25;1.85;;;17.80;99.90;;;;;;5057574;28;20236;-68
2022/05/21 10:23:47;;;;;;;0.70;0.70;;;17.70;99.90;;;;;;5054275;28;20753;-69
2022/05/21 10:26:48;;;;;;;0.40;0.40;;;17.80;99.90;;;;;;5086843;28;20680;-68
2022/05/21 10:29:50;;;;;;;2.50;1.30;;;17.80;99.90;;;;;;5091896;28;20196;-69
2022/05/21 10:32:55;;;;;;;3.05;2.13;;;17.80;99.90;;;;;;5091898;28;20196;-68
2022/05/21 10:36:13;;;;;;;1.02;0.98;;;17.90;99.90;;;;;;5092209;28;20274;-69
2022/05/21 10:39:22;;;;;;;1.15;0.82;;;18.20;99.90;;;;;;5086600;28;20223;-68
2022/05/21 10:42:33;;;;;;;1.35;1.25;;;18.50;99.90;;;;;;5092073;28;20227;-70
2022/05/21 10:45:27;;;;;;;0.90;0.90;;;18.80;99.90;;;;;;5091692;28;20587;-70
2022/05/21 10:48:43;;;;;;;6.30;3.22;;;19.20;99.90;;;;;;5092439;28;20196;-70
2022/05/21 10:51:35;;;;;;;1.95;1.75;;;19.00;99.90;;;;;;5091974;28;20719;-68
2022/05/21 10:54:39;;;;;;;0.80;0.80;;;18.40;99.90;;;;;;5092152;28;20228;-69
2022/05/21 10:57:45;;;;;;;0.88;0.65;;;18.00;99.90;;;;;;5091559;28;20215;-70
2022/05/21 11:00:39;;;;;;;0.40;0.40;;;17.70;99.90;;;;;;5092506;28;20227;-68
2022/05/21 11:03:44;;;;;;;4.93;2.38;;;18.00;99.90;;;;;;5091497;28;20199;-69
2022/05/21 11:06:48;;;;;;;1.15;1.05;;;18.60;99.90;;;;;;5091592;28;20203;-71
2022/05/21 11:09:46;;;;;;;0.98;0.95;;;18.70;99.90;;;;;;5091835;28;20211;-69
2022/05/21 11:12:44;;;;;;;0.90;0.80;;;18.60;99.90;;;;;;5091310;28;20204;-70
2022/05/21 11:15:37;;;;;;;0.50;0.50;;;18.70;99.90;;;;;;5090799;28;20195;-71
2022/05/21 11:18:33;;;;;;;5.30;1.20;;;19.20;99.90;;;;;;5090889;28;20599;-70
2022/05/21 11:21:26;;;;;;;1.52;0.82;;;19.40;99.90;;;;;;5090361;28;20219;-72
2022/05/21 11:24:20;;;;;;;0.95;0.93;;;19.80;99.90;;;;;;5090279;28;20745;-71
2022/05/21 11:27:13;;;;;;;1.65;1.25;;;20.40;99.90;;;;;;5049985;28;20639;-69
2022/05/21 11:30:08;;;;;;;0.50;0.50;;;20.30;99.90;;;;;;5051042;28;20209;-71
2022/05/21 11:39:23;;;;;;;1.05;0.95;;;19.80;99.90;;;;;;5051846;28;20225;-72
2022/05/21 11:42:14;;;;;;;0.50;0.50;;;19.90;99.90;;;;;;5055239;28;20221;-69
2022/05/21 11:45:23;;;;;;;0.50;0.50;;;19.40;99.90;;;;;;5057263;28;20197;-69
2022/05/21 11:48:15;;;;;;;1.38;1.27;;;18.90;99.90;;;;;;5056292;28;20196;-70
2022/05/21 11:51:24;;;;;;;0.65;0.65;;;19.10;99.90;;;;;;5056460;28;20294;-71
2022/05/21 11:55:01;;;;;;;7.50;1.80;;;19.70;99.90;;;;;;5056568;28;20198;-70
2022/05/21 11:57:51;;;;;;;1.05;0.82;;;19.60;99.90;;;;;;5056436;28;20613;-70
2022/05/21 12:00:51;;;;;;;0.68;0.68;;;19.40;99.90;;;;;;5056455;28;20224;-73
2022/05/21 12:03:55;;;;;;;7.15;1.40;;;19.70;99.90;;;;;;5055938;28;20629;-71
2022/05/21 12:06:43;;;;;;;0.77;0.73;;;19.70;99.90;;;;;;5054890;28;20224;-69
2022/05/21 12:09:34;;;;;;;1.77;1.35;;;19.20;99.90;;;;;;5057331;28;20197;-69
2022/05/21 12:12:24;;;;;;;0.52;0.50;;;18.80;99.90;;;;;;5056773;28;20236;-70
2022/05/21 12:15:18;;;;;;;2.00;1.90;;;18.70;99.90;;;;;;5058991;28;20689;-70
2022/05/21 12:18:31;;;;;;;1.90;1.23;;;18.70;99.90;;;;;;5057951;28;20214;-71
2022/05/21 12:22:01;;;;;;;1.05;0.75;;;18.90;99.90;;;;;;5055583;28;20221;-71
2022/05/21 12:24:49;;;;;;;1.15;0.70;;;18.80;99.90;;;;;;5059569;28;20215;-71
2022/05/21 12:27:51;;;;;;;1.42;1.33;;;18.70;99.90;;;;;;5094828;28;20680;-70
2022/05/21 12:30:39;;;;;;;1.80;1.73;;;18.70;99.90;;;;;;5077385;28;20227;-70
2022/05/21 12:33:40;;;;;;;3.50;1.88;;;18.90;99.90;;;;;;5075549;28;20201;-69
2022/05/21 12:36:50;;;;;;;1.30;0.70;;;19.40;99.90;;;;;;5075014;28;20207;-72
2022/05/21 12:39:49;;;;;;;0.70;0.70;;;20.20;99.90;;;;;;5074590;28;20224;-71
2022/05/21 12:42:42;;;;;;;0.93;0.93;;;20.30;99.90;;;;;;5074774;28;20208;-72
2022/05/21 12:45:37;;;;;;;0.95;0.85;;;20.00;99.90;;;;;;5075526;28;20339;-70
2022/05/21 12:48:32;;;;;;;1.42;1.33;;;19.80;99.90;;;;;;5074460;28;20188;-71
2022/05/21 12:51:31;;;;;;;4.25;1.95;;;20.10;99.90;;;;;;5074215;28;20213;-72
2022/05/21 12:54:28;;;;;;;1.15;0.90;;;20.60;99.90;;;;;;5074000;28;20211;-72
2022/05/21 12:57:19;;;;;;;0.60;0.60;;;20.40;99.90;;;;;;5074365;28;20730;-70
2022/05/21 13:00:08;;;;;;;0.80;0.80;;;20.10;99.90;;;;;;5074248;28;20231;-73
2022/05/21 13:02:58;;;;;;;0.40;0.40;;;19.60;99.90;;;;;;5074743;28;20197;-70
2022/05/21 13:05:52;;;;;;;1.20;1.20;;;19.40;99.90;;;;;;5074834;28;20675;-70
2022/05/21 13:08:42;;;;;;;0.60;0.60;;;19.70;99.90;;;;;;5074663;28;20218;-70
2022/05/21 13:11:36;;;;;;;0.70;0.70;;;19.00;99.90;;;;;;5074861;28;20217;-69
2022/05/21 13:14:35;;;;;;;3.22;0.77;;;18.50;99.90;;;;;;5074900;28;20197;-69
2022/05/21 13:17:32;;;;;;;16.55;1.42;;;18.30;99.90;;;;;;5075528;28;20197;-69
2022/05/21 13:20:31;;;;;;;2.65;1.77;;;18.40;99.90;;;;;;5074917;28;20219;-69
2022/05/21 13:23:53;;;;;;;9.70;1.02;;;19.40;99.90;;;;;;5074967;28;20285;-69
2022/05/21 13:26:42;;;;;;;0.60;0.60;;;19.80;99.90;;;;;;5083364;28;20253;-68
2022/05/21 13:29:31;;;;;;;0.93;0.85;;;20.20;99.90;;;;;;5092418;28;20207;-70
2022/05/21 13:32:24;;;;;;;0.57;0.57;;;20.70;99.90;;;;;;5092248;28;20232;-70
2022/05/21 13:35:22;;;;;;;1.15;0.93;;;21.00;99.90;;;;;;5092744;28;20195;-71
2022/05/21 13:38:14;;;;;;;1.10;1.02;;;20.10;99.90;;;;;;5092385;28;20204;-72
2022/05/21 13:41:05;;;;;;;3.25;1.38;;;19.60;99.90;;;;;;5092988;28;20220;-69
2022/05/21 13:43:55;;;;;;;2.40;1.33;;;18.80;99.90;;;;;;5093552;28;20200;-68
2022/05/21 13:46:52;;;;;;;0.70;0.70;;;18.10;99.90;;;;;;5093401;28;20235;-69
2022/05/21 13:49:42;;;;;;;0.52;0.52;;;17.90;99.90;;;;;;5093391;28;20196;-68
2022/05/21 13:52:32;;;;;;;0.40;0.40;;;18.60;99.90;;;;;;5092288;28;20570;-70
2022/05/21 13:55:21;;;;;;;0.60;0.60;;;19.60;99.90;;;;;;5092596;28;20207;-70
2022/05/21 13:58:16;;;;;;;0.40;0.40;;;19.70;99.90;;;;;;5092159;28;20192;-71
2022/05/21 14:01:08;;;;;;;0.60;0.50;;;20.50;99.90;;;;;;5091835;28;20224;-69
2022/05/21 14:04:06;;;;;;;1.98;0.80;;;22.30;99.90;;;;;;5091783;28;20305;-69
2022/05/21 14:06:54;;;;;;;0.45;0.45;;;23.80;99.90;;;;;;5092477;28;20204;-68
2022/05/21 14:09:47;;;;;;;2.05;0.70;;;25.00;99.90;;;;;;5092184;28;20195;-71
2022/05/21 14:12:38;;;;;;;3.33;1.17;;;25.60;99.90;;;;;;5093521;28;20250;-68
2022/05/21 14:15:30;;;;;;;0.70;0.70;;;25.60;99.90;;;;;;5093127;28;20291;-70
2022/05/21 14:18:27;;;;;;;1.00;1.00;;;25.40;99.90;;;;;;5092295;28;20582;-68
2022/05/21 14:21:22;;;;;;;1.38;1.38;;;26.10;99.50;;;;;;5092222;28;20341;-69
2022/05/21 14:24:17;;;;;;;2.88;1.20;;;26.80;97.90;;;;;;5091704;28;20204;-68
2022/05/21 14:27:21;;;;;;;4.30;2.60;;;27.90;96.30;;;;;;5051954;28;20213;-69
2022/05/21 14:30:10;;;;;;;0.50;0.50;;;26.90;94.80;;;;;;5053936;28;20208;-69
2022/05/21 14:33:09;;;;;;;0.50;0.50;;;24.90;96.60;;;;;;5053530;28;20212;-69
2022/05/21 14:36:22;;;;;;;0.50;0.50;;;23.40;99.60;;;;;;5053169;28;20206;-69
2022/05/21 14:39:11;;;;;;;1.08;0.98;;;23.10;99.90;;;;;;5052465;28;22575;-70
2022/05/21 14:42:01;;;;;;;6.55;1.25;;;24.20;98.60;;;;;;5051035;28;20217;-68
2022/05/21 14:44:50;;;;;;;0.60;0.60;;;25.10;96.20;;;;;;5052043;28;20328;-68
2022/05/21 14:47:54;;;;;;;1.55;1.45;;;26.40;94.50;;;;;;5053696;28;20193;-69
2022/05/21 14:53:54;;;;;;;1.25;0.80;;;27.60;90.90;;;;;;5051688;28;20622;-68
2022/05/21 14:56:42;;;;;;;0.55;0.55;;;29.00;88.20;;;;;;5052576;28;20692;-69
2022/05/21 14:59:30;;;;;;;0.80;0.80;;;29.40;84.20;;;;;;5050812;28;20213;-69
2022/05/21 15:02:18;;;;;;;0.77;0.60;;;29.30;80.50;;;;;;5050581;28;20224;-69
2022/05/21 15:05:08;;;;;;;0.70;0.70;;;29.10;79.30;;;;;;5052608;28;20202;-69
2022/05/21 15:07:58;;;;;;;1.08;0.98;;;28.90;78.70;;;;;;5052714;28;20674;-69
2022/05/21 15:10:48;;;;;;;0.50;0.50;;;26.80;81.70;;;;;;5053343;28;20217;-69
2022/05/21 15:13:36;;;;;;;0.50;0.43;;;24.80;87.70;;;;;;5052185;28;20200;-70
2022/05/21 15:16:24;;;;;;;0.40;0.40;;;23.70;91.10;;;;;;5050086;28;20205;-72
2022/05/21 15:19:13;;;;;;;1.25;1.15;;;23.40;91.90;;;;;;5052642;28;20239;-70
2022/05/21 15:22:02;;;;;;;0.52;0.52;;;22.40;93.20;;;;;;5050310;28;20225;-70
2022/05/21 15:24:51;;;;;;;13.25;2.88;;;21.20;95.30;;;;;;5054061;28;20209;-71
2022/05/21 15:27:42;;;;;;;0.40;0.40;;;20.70;98.30;;;;;;5090398;28;20207;-70
2022/05/21 15:30:33;;;;;;;0.40;0.40;;;20.20;99.60;;;;;;5090054;28;20850;-73
2022/05/21 15:33:25;;;;;;;1.10;1.00;;;19.60;99.90;;;;;;5097388;22;20274;-67
2022/05/21 15:36:13;;;;;;;2.60;0.80;;;19.30;99.90;;;;;;5073827;28;20203;-66
2022/05/21 15:39:02;;;;;;;0.70;0.70;;;19.10;99.90;;;;;;5075217;28;20200;-66
2022/05/21 15:41:50;;;;;;;0.40;0.40;;;19.00;99.90;;;;;;5075419;28;20231;-67